Time;durP1;ratioP1;P1;durP2;ratioP2;P2;SDS_P1;SDS_P2;PMS_P1;PMS_P2;Temp;Humidity;BMP_temperature;BMP_pressure;BME280_temperature;BME280_humidity;BME280_pressure;Samples;Min_cycle;Max_cycle;Signal;HPM_P1;HPM_P2
2023/05/16 00:01:07;;;;;;;18.38;11.57;;;;;;;13.58;99.47;94319.63;5133213;27;20204;-77
2023/05/16 00:03:35;;;;;;;17.52;14.73;;;;;;;13.63;99.28;94322.09;5135706;27;20368;-76
2023/05/16 00:06:02;;;;;;;21.17;15.48;;;;;;;13.60;98.99;94317.34;5141083;27;20232;-77
2023/05/16 00:08:29;;;;;;;21.10;12.93;;;;;;;13.57;99.30;94309.88;5133735;27;20193;-76
2023/05/16 00:10:55;;;;;;;20.90;12.10;;;;;;;13.59;99.29;94316.56;5132640;27;20216;-75
2023/05/16 00:13:24;;;;;;;20.95;11.77;;;;;;;13.59;99.38;94313.84;5132974;27;20193;-76
2023/05/16 00:15:52;;;;;;;20.05;12.27;;;;;;;13.63;99.08;94311.19;5128519;27;20229;-75
2023/05/16 00:18:18;;;;;;;21.77;12.50;;;;;;;13.62;99.17;94304.19;5150425;27;20219;-75
2023/05/16 00:20:47;;;;;;;15.82;11.07;;;;;;;13.62;99.32;94298.75;5142854;27;20237;-76
2023/05/16 00:23:13;;;;;;;19.48;12.57;;;;;;;13.60;99.35;94301.81;5123256;27;20675;-75
2023/05/16 00:25:40;;;;;;;15.98;11.50;;;;;;;13.59;99.42;94294.00;5123925;27;20246;-75
2023/05/16 00:28:07;;;;;;;18.50;10.77;;;;;;;13.60;99.21;94307.25;5131155;27;20197;-75
2023/05/16 00:30:34;;;;;;;23.45;16.27;;;;;;;13.62;98.98;94296.81;5132522;27;20200;-76
2023/05/16 00:33:01;;;;;;;21.65;12.23;;;;;;;13.58;99.38;94303.31;5136391;27;20771;-76
2023/05/16 00:35:28;;;;;;;25.02;11.77;;;;;;;13.58;99.36;94303.31;5141487;27;20622;-76
2023/05/16 00:37:56;;;;;;;21.15;12.45;;;;;;;13.56;98.92;94297.41;5122503;27;20277;-76
2023/05/16 00:40:22;;;;;;;18.92;12.48;;;;;;;13.56;99.20;94292.75;5130213;27;20197;-75
2023/05/16 00:42:49;;;;;;;17.88;10.77;;;;;;;13.58;98.83;94292.41;5116521;27;20212;-75
2023/05/16 00:45:16;;;;;;;22.70;14.18;;;;;;;13.61;98.69;94280.81;5131714;27;20316;-75
2023/05/16 00:47:43;;;;;;;14.90;10.13;;;;;;;13.73;97.24;94277.97;5123500;27;20197;-75
2023/05/16 00:50:10;;;;;;;17.63;10.63;;;;;;;13.72;97.28;94266.31;5127077;27;20593;-76
2023/05/16 00:52:37;;;;;;;15.18;9.68;;;;;;;13.72;97.38;94265.50;5127225;27;20602;-76
2023/05/16 00:55:07;;;;;;;19.10;11.20;;;;;;;13.70;97.47;94270.53;5116533;27;20968;-75
2023/05/16 00:57:33;;;;;;;18.08;10.65;;;;;;;13.72;97.18;94265.50;5126604;27;20258;-75
2023/05/16 01:00:00;;;;;;;16.50;11.25;;;;;;;13.74;97.20;94263.22;5131682;27;20656;-75
2023/05/16 01:02:28;;;;;;;18.70;9.85;;;;;;;13.67;97.37;94257.63;5131841;27;20270;-76
2023/05/16 01:04:56;;;;;;;16.52;10.32;;;;;;;13.64;97.48;94261.06;5125526;27;20235;-75
2023/05/16 01:07:22;;;;;;;15.45;10.65;;;;;;;13.69;97.45;94260.78;5128749;27;20193;-75
2023/05/16 01:09:49;;;;;;;19.75;12.27;;;;;;;13.65;97.64;94270.81;5131850;27;20201;-74
2023/05/16 01:12:27;;;;;;;19.83;12.68;;;;;;;13.62;97.72;94263.34;5131697;27;20200;-76
2023/05/16 01:15:02;;;;;;;13.80;8.80;;;;;;;13.62;97.78;94255.19;5127617;27;20366;-76
2023/05/16 01:17:36;;;;;;;20.23;13.30;;;;;;;13.58;97.90;94255.09;5131107;27;20196;-76
2023/05/16 01:20:14;;;;;;;11.50;8.02;;;;;;;13.60;97.77;94252.03;5131548;27;20647;-77
2023/05/16 01:22:56;;;;;;;16.35;9.38;;;;;;;13.63;97.41;94251.31;5119921;27;20193;-74
2023/05/16 01:25:35;;;;;;;17.40;10.32;;;;;;;13.62;97.47;94244.31;5119140;27;20633;-75
2023/05/16 01:28:05;;;;;;;16.33;9.77;;;;;;;13.62;97.28;94249.75;5131393;27;20600;-76
2023/05/16 01:30:35;;;;;;;16.92;8.88;;;;;;;13.57;98.09;94241.84;5122019;27;20617;-75
2023/05/16 01:33:02;;;;;;;18.27;10.88;;;;;;;13.53;98.42;94236.31;5130928;27;20282;-76
2023/05/16 01:35:29;;;;;;;15.15;9.63;;;;;;;13.50;98.62;94237.84;5130966;27;20269;-74
2023/05/16 01:38:02;;;;;;;17.73;11.43;;;;;;;13.48;98.55;94237.41;5130775;27;20197;-76
2023/05/16 01:40:36;;;;;;;15.75;9.15;;;;;;;13.51;98.42;94225.03;5128424;27;20207;-78
2023/05/16 01:43:11;;;;;;;16.40;9.25;;;;;;;13.48;98.33;94212.13;5118073;27;20189;-75
2023/05/16 01:45:43;;;;;;;17.02;9.48;;;;;;;13.47;98.56;94216.78;5130364;27;20774;-76
2023/05/16 01:48:16;;;;;;;15.13;9.90;;;;;;;13.49;98.46;94211.78;5131117;27;20185;-75
2023/05/16 01:50:47;;;;;;;17.58;10.52;;;;;;;13.46;98.85;94220.63;5125896;27;20675;-77
2023/05/16 01:53:19;;;;;;;20.00;11.93;;;;;;;13.37;99.23;94217.34;5112831;27;20202;-75
2023/05/16 01:55:47;;;;;;;21.52;16.58;;;;;;;13.30;100.00;94217.16;5122675;27;20217;-75
2023/05/16 01:58:20;;;;;;;19.40;13.45;;;;;;;13.29;100.00;94212.88;5127398;27;20210;-76
2023/05/16 02:00:46;;;;;;;17.25;9.75;;;;;;;13.28;100.00;94213.22;5131086;27;20197;-76
2023/05/16 02:03:13;;;;;;;19.67;12.18;;;;;;;13.29;100.00;94218.31;5131055;27;20278;-77
2023/05/16 02:05:40;;;;;;;17.08;11.82;;;;;;;13.28;100.00;94218.66;5122826;27;20205;-76
2023/05/16 02:08:07;;;;;;;15.85;10.02;;;;;;;13.28;100.00;94213.22;5144287;27;20260;-77
2023/05/16 02:10:34;;;;;;;14.85;9.25;;;;;;;13.26;100.00;94208.13;5130513;27;20193;-77
2023/05/16 02:13:01;;;;;;;17.90;10.57;;;;;;;13.24;100.00;94206.94;5130358;27;20257;-74
2023/05/16 02:15:29;;;;;;;19.90;12.30;;;;;;;13.24;100.00;94201.50;5130829;27;20631;-75
2023/05/16 02:17:57;;;;;;;21.67;12.63;;;;;;;13.23;100.00;94199.91;5129482;27;20201;-76
2023/05/16 02:20:23;;;;;;;15.02;10.43;;;;;;;13.22;100.00;94210.00;5119069;27;20205;-76
2023/05/16 02:22:50;;;;;;;18.27;11.52;;;;;;;13.27;99.91;94204.25;5125917;27;20290;-76
2023/05/16 02:25:17;;;;;;;17.67;11.77;;;;;;;13.30;99.51;94200.84;5130213;27;20527;-76
2023/05/16 02:27:44;;;;;;;16.60;11.05;;;;;;;13.36;98.88;94193.22;5118474;27;20214;-77
2023/05/16 02:30:11;;;;;;;15.73;10.90;;;;;;;13.35;98.87;94206.03;5130515;27;20276;-76
2023/05/16 02:32:40;;;;;;;14.73;9.38;;;;;;;13.41;98.39;94190.97;5128018;27;20193;-76
2023/05/16 02:35:07;;;;;;;18.00;11.40;;;;;;;13.43;98.09;94202.31;5130502;27;20243;-76
2023/05/16 02:37:34;;;;;;;17.08;10.18;;;;;;;13.44;97.94;94208.53;5121024;27;20700;-76
2023/05/16 02:40:01;;;;;;;18.63;13.07;;;;;;;13.40;97.99;94205.72;5114847;27;20607;-76
2023/05/16 02:42:28;;;;;;;17.25;12.90;;;;;;;13.40;98.12;94204.94;5125615;27;20193;-77
2023/05/16 02:44:55;;;;;;;17.25;10.10;;;;;;;13.44;97.78;94205.81;5125420;27;20301;-76
2023/05/16 02:47:21;;;;;;;15.32;10.20;;;;;;;13.44;97.61;94211.25;5128739;27;20261;-76
2023/05/16 02:49:51;;;;;;;11.90;8.73;;;;;;;13.57;96.64;94206.47;5129586;27;20197;-76
2023/05/16 02:52:17;;;;;;;16.20;8.40;;;;;;;13.62;95.91;94195.31;5124900;27;20635;-76
2023/05/16 02:54:44;;;;;;;13.60;8.95;;;;;;;13.65;95.78;94189.16;5129565;27;20205;-76
2023/05/16 02:57:11;;;;;;;14.43;9.15;;;;;;;13.72;95.35;94200.19;5125700;28;20197;-76
2023/05/16 02:59:38;;;;;;;12.02;8.32;;;;;;;13.81;94.71;94192.59;5128712;28;20242;-77
2023/05/16 03:02:05;;;;;;;14.57;11.43;;;;;;;13.79;94.42;94189.44;5121379;28;20197;-76
2023/05/16 03:04:31;;;;;;;16.42;11.48;;;;;;;13.82;94.29;94188.72;5140583;27;20208;-76
2023/05/16 03:07:00;;;;;;;11.88;7.63;;;;;;;13.84;93.91;94186.44;5126610;27;20196;-76
2023/05/16 03:09:27;;;;;;;12.50;7.43;;;;;;;13.92;93.37;94180.00;5127818;28;20200;-76
2023/05/16 03:11:54;;;;;;;15.10;9.43;;;;;;;13.91;93.61;94185.78;5126752;28;20246;-76
2023/05/16 03:14:20;;;;;;;16.63;11.85;;;;;;;13.89;93.82;94194.31;5129283;28;20341;-75
2023/05/16 03:16:47;;;;;;;18.42;11.57;;;;;;;13.90;93.73;94190.44;5125834;27;20232;-76
2023/05/16 03:19:14;;;;;;;20.02;11.60;;;;;;;13.81;93.96;94181.69;5129237;28;20288;-75
2023/05/16 03:21:41;;;;;;;15.13;11.32;;;;;;;13.98;92.96;94185.91;5130725;27;20212;-75
2023/05/16 03:24:09;;;;;;;16.77;11.57;;;;;;;14.02;92.77;94192.22;5129648;28;20581;-75
2023/05/16 03:26:36;;;;;;;15.98;10.70;;;;;;;14.01;92.75;94186.00;5129555;28;20208;-76
2023/05/16 03:29:03;;;;;;;20.15;9.35;;;;;;;13.97;92.78;94179.69;5123688;28;20257;-76
2023/05/16 03:31:31;;;;;;;11.40;7.07;;;;;;;13.96;92.84;94191.72;5126279;28;20205;-75
2023/05/16 03:33:58;;;;;;;15.48;12.48;;;;;;;13.96;93.12;94178.09;5120614;28;20237;-76
2023/05/16 03:36:25;;;;;;;15.40;9.40;;;;;;;13.98;92.96;94186.72;5128680;28;20556;-77
2023/05/16 03:38:52;;;;;;;17.65;10.02;;;;;;;13.97;93.28;94185.13;5129338;28;20205;-76
2023/05/16 03:41:21;;;;;;;16.63;9.90;;;;;;;13.94;93.18;94166.78;5135634;27;20197;-76
2023/05/16 03:43:47;;;;;;;17.10;9.05;;;;;;;13.92;93.08;94174.53;5124181;28;20312;-76
2023/05/16 03:46:14;;;;;;;13.25;8.40;;;;;;;13.96;92.96;94177.31;5108627;28;20610;-76
2023/05/16 03:48:41;;;;;;;12.02;8.40;;;;;;;14.03;92.57;94183.72;5128077;27;20201;-75
2023/05/16 03:51:08;;;;;;;10.00;6.93;;;;;;;14.02;92.24;94187.56;5116383;28;20269;-76
2023/05/16 03:53:35;;;;;;;20.58;12.23;;;;;;;14.02;92.17;94171.22;5128979;28;20624;-77
2023/05/16 03:56:02;;;;;;;12.35;8.38;;;;;;;14.03;92.43;94167.38;5124463;28;20220;-78
2023/05/16 03:58:30;;;;;;;16.23;12.65;;;;;;;14.10;92.17;94181.09;5130087;27;20292;-76
2023/05/16 04:00:57;;;;;;;18.25;11.80;;;;;;;14.07;92.02;94173.69;5130234;27;20619;-77
2023/05/16 04:03:27;;;;;;;14.82;8.73;;;;;;;14.10;91.87;94178.38;5126753;27;20202;-77
2023/05/16 04:05:54;;;;;;;11.80;6.80;;;;;;;14.10;91.72;94172.16;5132858;27;20292;-75
2023/05/16 04:08:21;;;;;;;20.88;8.55;;;;;;;14.10;91.61;94177.59;5128933;27;20233;-75
2023/05/16 04:10:47;;;;;;;12.27;7.78;;;;;;;14.12;91.70;94181.53;5127506;27;20203;-75
2023/05/16 04:13:15;;;;;;;12.38;8.80;;;;;;;14.10;91.96;94178.38;5133070;27;20611;-76
2023/05/16 04:15:43;;;;;;;15.90;10.48;;;;;;;14.05;92.43;94184.13;5132547;27;20225;-76
2023/05/16 04:18:10;;;;;;;15.63;8.30;;;;;;;14.07;92.31;94190.00;5130199;27;20261;-76
2023/05/16 04:20:37;;;;;;;22.27;10.93;;;;;;;14.12;92.09;94186.19;5132459;27;20604;-76
2023/05/16 04:23:04;;;;;;;16.13;10.18;;;;;;;14.17;91.82;94192.16;5129801;27;20250;-75
2023/05/16 04:25:31;;;;;;;13.55;8.63;;;;;;;14.26;90.98;94191.13;5130078;27;20193;-77
2023/05/16 04:27:58;;;;;;;15.40;9.45;;;;;;;14.32;90.27;94185.03;5131751;27;20197;-75
2023/05/16 04:30:25;;;;;;;12.20;6.47;;;;;;;14.43;89.29;94174.34;5132200;27;20239;-74
2023/05/16 04:32:53;;;;;;;16.08;7.07;;;;;;;14.48;89.04;94183.00;5138751;27;20197;-74
2023/05/16 04:35:20;;;;;;;15.32;10.60;;;;;;;14.50;88.70;94164.34;5132411;27;20209;-74
2023/05/16 04:37:47;;;;;;;19.13;13.00;;;;;;;14.53;88.79;94165.56;5130447;27;20213;-75
2023/05/16 04:40:14;;;;;;;13.45;8.32;;;;;;;14.54;88.74;94180.75;5122627;27;20196;-74
2023/05/16 04:42:41;;;;;;;16.48;8.05;;;;;;;14.54;88.96;94158.97;5131841;27;20209;-75
2023/05/16 04:45:10;;;;;;;12.02;7.85;;;;;;;14.55;88.66;94155.09;5132011;27;20714;-75
2023/05/16 04:47:37;;;;;;;10.18;7.18;;;;;;;14.48;89.04;94154.97;5131699;27;20288;-76
2023/05/16 04:50:08;;;;;;;9.57;7.20;;;;;;;14.51;89.01;94160.47;5131826;27;20197;-75
2023/05/16 04:52:35;;;;;;;7.30;5.43;;;;;;;14.51;88.69;94143.31;5124334;27;20761;-78
2023/05/16 04:55:02;;;;;;;17.33;5.85;;;;;;;14.54;88.56;94164.41;5138407;27;20308;-77
2023/05/16 04:57:29;;;;;;;15.45;6.97;;;;;;;14.59;88.43;94164.13;5129323;27;20309;-76
2023/05/16 04:59:56;;;;;;;9.63;6.35;;;;;;;14.60;88.33;94156.72;5131409;27;20598;-80
2023/05/16 05:02:22;;;;;;;15.20;11.05;;;;;;;14.58;88.26;94149.69;5131685;27;20198;-75
2023/05/16 05:04:50;;;;;;;11.48;6.97;;;;;;;14.56;88.35;94164.84;5131187;27;20570;-74
2023/05/16 05:07:18;;;;;;;14.43;8.43;;;;;;;14.57;88.24;94158.22;5131844;27;20616;-75
2023/05/16 05:09:45;;;;;;;11.77;7.40;;;;;;;14.58;88.23;94155.16;5129139;27;20205;-81
2023/05/16 05:12:12;;;;;;;9.48;5.80;;;;;;;14.60;87.97;94173.88;5117836;27;20613;-77
2023/05/16 05:14:39;;;;;;;12.48;7.05;;;;;;;14.65;87.65;94170.03;5132008;27;20213;-76
2023/05/16 05:17:05;;;;;;;11.48;6.65;;;;;;;14.66;87.51;94172.41;5118040;27;20293;-77
2023/05/16 05:19:32;;;;;;;11.52;6.60;;;;;;;14.67;87.41;94171.25;5132239;27;20201;-78
2023/05/16 05:21:59;;;;;;;12.20;7.72;;;;;;;14.65;87.36;94176.28;5131601;27;20196;-75
2023/05/16 05:24:27;;;;;;;16.88;9.43;;;;;;;14.70;87.11;94178.69;5131472;27;20196;-77
2023/05/16 05:26:54;;;;;;;8.68;5.45;;;;;;;14.75;86.73;94180.34;5131301;27;20197;-76
2023/05/16 05:29:21;;;;;;;11.10;6.68;;;;;;;14.79;86.66;94176.50;5131230;27;20226;-76
2023/05/16 05:31:48;;;;;;;15.30;6.78;;;;;;;14.81;86.57;94173.41;5131256;27;20205;-76
2023/05/16 05:34:15;;;;;;;11.65;5.45;;;;;;;14.81;86.28;94157.84;5130391;27;20636;-74
2023/05/16 05:36:42;;;;;;;11.05;6.78;;;;;;;14.79;86.79;94153.91;5130970;27;20312;-77
2023/05/16 05:39:09;;;;;;;17.25;8.43;;;;;;;14.75;87.18;94155.81;5131507;27;20201;-75
2023/05/16 05:41:38;;;;;;;9.63;5.93;;;;;;;14.78;86.73;94150.38;5139174;27;20207;-75
2023/05/16 05:44:05;;;;;;;14.20;10.38;;;;;;;14.81;86.66;94159.78;5130589;27;20221;-75
2023/05/16 05:46:33;;;;;;;10.32;7.47;;;;;;;14.85;86.51;94150.50;5124715;27;20193;-75
2023/05/16 05:49:00;;;;;;;8.32;5.63;;;;;;;14.90;86.27;94158.38;5130350;27;20648;-75
2023/05/16 05:51:27;;;;;;;12.65;6.82;;;;;;;14.93;86.03;94157.63;5131155;27;20265;-76
2023/05/16 05:53:54;;;;;;;7.80;4.13;;;;;;;14.99;85.59;94177.22;5131090;27;20197;-76
2023/05/16 05:56:23;;;;;;;9.13;5.70;;;;;;;14.93;85.61;94149.47;5131035;27;20225;-77
2023/05/16 05:58:51;;;;;;;13.57;9.82;;;;;;;15.00;85.68;94148.78;5128413;27;20205;-77
2023/05/16 06:01:19;;;;;;;13.05;8.48;;;;;;;15.05;84.85;94153.13;5128151;27;20205;-78
2023/05/16 06:03:46;;;;;;;12.85;8.00;;;;;;;15.04;84.83;94143.38;5130408;27;20671;-81
2023/05/16 06:06:14;;;;;;;7.68;5.22;;;;;;;15.08;84.90;94149.69;5130897;27;20228;-75
2023/05/16 06:08:41;;;;;;;12.93;7.38;;;;;;;15.05;84.92;94156.66;5130866;27;20664;-75
2023/05/16 06:11:07;;;;;;;10.07;5.50;;;;;;;15.02;85.15;94151.16;5130685;27;20787;-77
2023/05/16 06:13:34;;;;;;;12.93;5.78;;;;;;;15.02;84.96;94146.50;5130848;27;20241;-77
2023/05/16 06:16:02;;;;;;;11.45;6.82;;;;;;;15.01;85.31;94144.91;5130404;27;20305;-77
2023/05/16 06:18:29;;;;;;;13.57;6.88;;;;;;;15.03;85.27;94155.47;5131049;27;20220;-77
2023/05/16 06:20:56;;;;;;;10.63;5.57;;;;;;;14.99;85.74;94157.34;5130591;27;20215;-77
2023/05/16 06:23:23;;;;;;;12.77;5.10;;;;;;;15.01;85.61;94155.81;5130822;27;20205;-81
2023/05/16 06:25:50;;;;;;;13.18;7.88;;;;;;;15.04;85.32;94176.09;5132021;27;20213;-78
2023/05/16 06:28:17;;;;;;;10.98;6.25;;;;;;;15.07;85.31;94164.47;5130445;27;20234;-75
2023/05/16 06:30:45;;;;;;;10.25;4.93;;;;;;;15.16;84.74;94170.47;5130947;27;20209;-75
2023/05/16 06:33:14;;;;;;;7.20;5.32;;;;;;;15.19;84.71;94151.41;5130499;27;20236;-78
2023/05/16 06:35:41;;;;;;;10.30;5.78;;;;;;;15.20;84.69;94149.47;5130023;27;20201;-75
2023/05/16 06:38:07;;;;;;;10.20;6.43;;;;;;;15.21;84.28;94140.13;5130648;27;20238;-77
2023/05/16 06:40:34;;;;;;;6.20;4.80;;;;;;;15.25;84.21;94144.47;5130527;27;20235;-77
2023/05/16 06:43:01;;;;;;;5.63;4.60;;;;;;;15.26;84.13;94146.06;5130076;27;20240;-77
2023/05/16 06:45:28;;;;;;;13.73;6.75;;;;;;;15.26;84.13;94145.28;5130227;27;20197;-82
2023/05/16 06:47:55;;;;;;;12.90;4.95;;;;;;;15.35;83.58;94140.31;5129991;27;20200;-76
2023/05/16 06:50:23;;;;;;;10.25;6.28;;;;;;;15.36;83.61;94133.69;5128748;27;20201;-77
2023/05/16 06:52:50;;;;;;;9.82;4.03;;;;;;;15.40;83.20;94137.28;5117576;27;20269;-77
2023/05/16 06:55:17;;;;;;;10.40;6.55;;;;;;;15.41;83.19;94124.41;5130294;27;20616;-77
2023/05/16 06:57:44;;;;;;;9.63;5.90;;;;;;;15.49;82.50;94126.84;5130508;27;20231;-80
2023/05/16 07:00:11;;;;;;;9.98;6.13;;;;;;;15.50;82.34;94116.72;5138255;27;20697;-76
2023/05/16 07:02:38;;;;;;;12.10;6.97;;;;;;;15.53;82.18;94133.16;5138471;27;20287;-75
2023/05/16 07:05:06;;;;;;;11.20;6.97;;;;;;;15.67;81.60;94142.72;5135810;27;20204;-75
2023/05/16 07:07:35;;;;;;;8.65;4.63;;;;;;;15.62;81.95;94130.16;5130043;28;20250;-75
2023/05/16 07:10:02;;;;;;;13.02;7.88;;;;;;;15.62;82.08;94120.03;5130374;28;20208;-82
2023/05/16 07:12:28;;;;;;;14.57;7.60;;;;;;;15.63;82.46;94112.63;5130261;28;20423;-75
2023/05/16 07:14:55;;;;;;;7.75;4.75;;;;;;;15.65;82.12;94118.50;5130012;28;20196;-76
2023/05/16 07:17:22;;;;;;;10.25;6.43;;;;;;;15.65;82.47;94113.03;5129971;28;20305;-76
2023/05/16 07:19:49;;;;;;;7.78;5.85;;;;;;;15.62;82.53;94092.72;5129891;28;20208;-77
2023/05/16 07:22:16;;;;;;;12.70;8.75;;;;;;;15.71;82.22;94094.41;5129805;28;21017;-76
2023/05/16 07:24:44;;;;;;;9.10;5.50;;;;;;;15.71;82.14;94094.41;5130535;28;20250;-76
2023/05/16 07:27:11;;;;;;;9.73;5.03;;;;;;;15.79;82.17;94090.56;5129827;28;20612;-77
2023/05/16 07:29:38;;;;;;;33.40;5.97;;;;;;;15.81;82.35;94088.25;5143920;27;20539;-82
2023/05/16 07:32:06;;;;;;;10.98;8.73;;;;;;;15.79;82.10;94096.03;5130321;28;20261;-77
2023/05/16 07:34:33;;;;;;;16.80;8.98;;;;;;;15.83;82.06;94092.19;5129570;28;20232;-77
2023/05/16 07:36:59;;;;;;;14.50;9.18;;;;;;;15.87;82.06;94097.69;5132430;27;20726;-78
2023/05/16 07:39:26;;;;;;;15.05;9.80;;;;;;;15.93;81.60;94104.38;5134022;27;20201;-76
2023/05/16 07:41:54;;;;;;;14.48;9.48;;;;;;;15.94;81.35;94123.13;5144692;27;20200;-77
2023/05/16 07:44:21;;;;;;;14.35;9.10;;;;;;;15.99;81.19;94130.19;5136167;27;20224;-75
2023/05/16 07:46:48;;;;;;;13.98;9.52;;;;;;;16.05;81.46;94114.25;5133572;27;20208;-76
2023/05/16 07:49:15;;;;;;;18.13;9.60;;;;;;;16.05;80.75;94109.59;5134179;27;20266;-77
2023/05/16 07:51:41;;;;;;;13.18;9.32;;;;;;;16.05;80.34;94115.06;5133639;27;20203;-78
2023/05/16 07:54:08;;;;;;;11.55;8.35;;;;;;;16.06;80.52;94121.31;5133983;27;20204;-75
2023/05/16 07:56:35;;;;;;;18.42;9.90;;;;;;;16.14;80.58;94103.81;5133345;27;20767;-77
2023/05/16 07:59:04;;;;;;;13.95;8.68;;;;;;;16.20;79.63;94108.56;5133295;27;20661;-77
2023/05/16 08:01:31;;;;;;;14.95;9.93;;;;;;;16.31;79.81;94108.66;5133716;27;20261;-79
2023/05/16 08:03:58;;;;;;;16.02;9.82;;;;;;;16.30;79.47;94110.63;5133131;27;20201;-78
2023/05/16 08:06:24;;;;;;;13.55;9.13;;;;;;;16.47;78.85;94097.50;5133260;27;20205;-76
2023/05/16 08:08:51;;;;;;;15.02;9.20;;;;;;;16.56;78.42;94106.16;5132962;27;20250;-78
2023/05/16 08:11:21;;;;;;;16.98;8.55;;;;;;;16.69;78.31;94099.25;5133213;27;20201;-78
2023/05/16 08:13:48;;;;;;;11.60;7.75;;;;;;;16.68;78.03;94086.75;5119453;27;20204;-78
2023/05/16 08:16:16;;;;;;;12.80;9.20;;;;;;;16.73;78.01;94088.34;5132507;27;20208;-78
2023/05/16 08:18:43;;;;;;;12.52;8.23;;;;;;;16.91;77.43;94081.84;5126936;27;20712;-75
2023/05/16 08:21:10;;;;;;;15.93;9.55;;;;;;;16.89;77.81;94086.13;5139457;27;20197;-75
2023/05/16 08:23:36;;;;;;;14.60;9.25;;;;;;;16.85;77.10;94097.03;5132822;27;20197;-76
2023/05/16 08:26:04;;;;;;;14.80;8.70;;;;;;;16.91;76.87;94084.59;5132493;27;20677;-76
2023/05/16 08:28:31;;;;;;;11.85;8.63;;;;;;;17.00;77.16;94086.97;5139987;27;20299;-76
2023/05/16 08:30:57;;;;;;;13.50;8.45;;;;;;;17.05;76.56;94095.63;5139090;27;20646;-74
2023/05/16 08:33:25;;;;;;;10.63;8.90;;;;;;;17.26;75.72;94094.16;5132795;27;20309;-75
2023/05/16 08:35:52;;;;;;;13.07;7.88;;;;;;;17.31;75.83;94085.59;5133071;27;20212;-77
2023/05/16 08:38:19;;;;;;;16.20;7.60;;;;;;;17.31;75.29;94085.59;5134428;27;20235;-76
2023/05/16 08:40:46;;;;;;;13.13;7.93;;;;;;;17.54;74.68;94086.09;5133274;27;20610;-77
2023/05/16 08:43:13;;;;;;;8.63;6.78;;;;;;;17.70;73.26;94085.81;5132892;27;20308;-78
2023/05/16 08:45:41;;;;;;;12.77;7.25;;;;;;;17.79;73.11;94078.00;5132927;27;20316;-76
2023/05/16 08:48:10;;;;;;;10.70;6.82;;;;;;;18.03;71.93;94084.75;5131837;27;20223;-78
2023/05/16 08:50:38;;;;;;;9.82;6.90;;;;;;;18.15;71.64;94072.63;5129847;27;20253;-77
2023/05/16 08:53:07;;;;;;;11.27;6.30;;;;;;;18.42;70.22;94066.38;5131839;27;20334;-76
2023/05/16 08:55:35;;;;;;;11.13;7.10;;;;;;;18.67;69.87;94068.38;5135659;27;20201;-76
2023/05/16 08:58:02;;;;;;;11.60;7.10;;;;;;;18.72;69.04;94071.50;5131588;27;20220;-77
2023/05/16 09:00:30;;;;;;;11.18;6.40;;;;;;;18.98;68.49;94073.06;5132163;27;20212;-76
2023/05/16 09:02:57;;;;;;;13.20;5.97;;;;;;;19.08;67.44;94066.75;5132825;27;20430;-80
2023/05/16 09:05:25;;;;;;;15.27;6.13;;;;;;;19.27;67.15;94070.25;5132879;27;20708;-77
2023/05/16 09:07:53;;;;;;;9.35;5.97;;;;;;;19.24;67.09;94065.56;5133340;27;20201;-76
2023/05/16 09:10:21;;;;;;;8.52;6.18;;;;;;;19.15;66.50;94074.97;5133860;27;20246;-75
2023/05/16 09:12:47;;;;;;;10.48;6.57;;;;;;;19.11;67.23;94057.75;5132376;27;20675;-76
2023/05/16 09:15:14;;;;;;;8.10;5.25;;;;;;;18.77;67.29;94053.88;5131896;27;20196;-77
2023/05/16 09:17:44;;;;;;;9.27;6.22;;;;;;;18.52;68.67;94058.53;5131925;27;20252;-77
2023/05/16 09:20:13;;;;;;;7.75;6.10;;;;;;;18.27;69.28;94075.00;5132204;27;20193;-75
2023/05/16 09:22:40;;;;;;;10.75;6.03;;;;;;;18.28;69.31;94065.59;5131597;27;20716;-73
2023/05/16 09:25:09;;;;;;;11.20;6.57;;;;;;;18.36;69.55;94062.44;5131892;27;20208;-78
2023/05/16 09:27:36;;;;;;;7.80;6.32;;;;;;;18.36;70.13;94054.22;5131905;27;20200;-76
2023/05/16 09:30:04;;;;;;;9.50;6.18;;;;;;;18.28;69.90;94066.38;5117935;27;20246;-76
2023/05/16 09:32:31;;;;;;;9.50;6.38;;;;;;;18.46;69.68;94049.91;5131180;27;20674;-84
2023/05/16 09:34:58;;;;;;;10.95;6.50;;;;;;;18.38;70.55;94048.34;5131089;27;20236;-76
2023/05/16 09:37:25;;;;;;;11.00;6.72;;;;;;;18.27;70.34;94042.09;5131214;27;20225;-79
2023/05/16 09:39:53;;;;;;;12.85;6.50;;;;;;;18.26;70.83;94062.44;5131259;27;20257;-75
2023/05/16 09:42:22;;;;;;;11.35;6.68;;;;;;;18.27;71.41;94050.31;5131367;27;20221;-76
2023/05/16 09:44:51;;;;;;;12.00;6.15;;;;;;;18.35;70.23;94038.16;5131563;27;20739;-77
2023/05/16 09:47:18;;;;;;;10.02;5.78;;;;;;;18.25;70.64;94050.69;5131433;27;20201;-77
2023/05/16 09:49:47;;;;;;;11.05;7.28;;;;;;;18.33;71.21;94051.47;5131374;27;20204;-77
2023/05/16 09:52:14;;;;;;;14.93;7.22;;;;;;;18.41;70.85;94042.88;5130974;27;20193;-78
2023/05/16 09:54:41;;;;;;;13.30;6.90;;;;;;;18.35;71.35;94044.44;5131439;27;20197;-78
2023/05/16 09:57:07;;;;;;;11.15;6.75;;;;;;;18.56;70.68;94053.84;5131063;27;20688;-76
2023/05/16 09:59:39;;;;;;;13.15;7.43;;;;;;;18.58;70.39;94048.75;5131336;27;20223;-80
2023/05/16 10:02:07;;;;;;;8.57;7.03;;;;;;;18.63;70.32;94043.69;5131538;27;20196;-78
2023/05/16 10:04:34;;;;;;;10.15;7.28;;;;;;;18.88;70.09;94051.88;5131184;27;20229;-76
2023/05/16 10:07:03;;;;;;;8.38;6.40;;;;;;;18.86;68.98;94031.53;5144854;27;20299;-80
2023/05/16 10:09:32;;;;;;;12.45;7.03;;;;;;;19.20;69.14;94048.31;5130981;27;20208;-78
2023/05/16 10:12:03;;;;;;;10.90;5.82;;;;;;;19.19;68.00;94058.50;5135838;27;20249;-73
2023/05/16 10:14:33;;;;;;;9.73;6.55;;;;;;;19.12;67.94;94042.84;5139466;27;20200;-76
2023/05/16 10:17:04;;;;;;;12.00;7.20;;;;;;;19.12;68.82;94053.03;5136728;27;20627;-76
2023/05/16 10:19:33;;;;;;;10.27;7.80;;;;;;;19.29;67.76;94062.38;5138080;27;20280;-76
2023/05/16 10:22:05;;;;;;;10.52;6.85;;;;;;;19.48;67.11;94053.72;5112266;27;20276;-77
2023/05/16 10:24:39;;;;;;;8.88;6.18;;;;;;;19.26;66.99;94061.25;5130755;27;20776;-76
2023/05/16 10:27:06;;;;;;;11.40;7.45;;;;;;;19.09;68.23;94048.34;5130429;27;20701;-78
2023/05/16 10:29:33;;;;;;;10.05;7.07;;;;;;;19.18;67.97;94052.22;5131018;27;20205;-77
2023/05/16 10:32:03;;;;;;;12.10;7.55;;;;;;;19.06;67.72;94038.13;5130395;27;20226;-80
2023/05/16 10:34:30;;;;;;;11.35;7.70;;;;;;;18.95;69.10;94038.16;5130292;27;20237;-78
2023/05/16 10:36:57;;;;;;;12.85;7.80;;;;;;;18.95;69.52;94035.41;5130817;27;20208;-76
2023/05/16 10:39:25;;;;;;;13.40;7.68;;;;;;;18.91;68.96;94033.84;5130429;27;20261;-77
2023/05/16 10:41:52;;;;;;;14.32;8.00;;;;;;;18.87;69.72;94024.81;5129956;27;20196;-76
2023/05/16 10:44:19;;;;;;;11.55;8.00;;;;;;;18.85;69.53;94017.00;5130403;27;20691;-76
2023/05/16 10:46:47;;;;;;;15.45;7.40;;;;;;;19.22;68.85;94007.50;5130504;27;20224;-78
2023/05/16 10:49:22;;;;;;;15.98;7.38;;;;;;;19.65;67.16;94003.44;5130789;27;20211;-77
2023/05/16 10:52:06;;;;;;;13.75;7.30;;;;;;;19.97;65.91;93986.72;5132434;27;20638;-78
2023/05/16 10:54:38;;;;;;;10.02;6.80;;;;;;;20.47;64.67;93983.66;5109450;28;20591;-77
2023/05/16 10:57:06;;;;;;;12.57;6.75;;;;;;;20.21;64.71;94007.03;5125758;27;20211;-78
2023/05/16 10:59:41;;;;;;;11.57;7.20;;;;;;;19.73;65.79;93999.44;5130339;28;20195;-79
2023/05/16 11:02:22;;;;;;;9.88;6.88;;;;;;;19.57;66.65;93995.59;5129729;28;20249;-78
2023/05/16 11:04:51;;;;;;;19.75;7.65;;;;;;;19.65;66.39;94006.19;5130548;28;20224;-78
2023/05/16 11:07:19;;;;;;;10.02;7.45;;;;;;;19.56;66.26;94005.81;5144359;27;20197;-78
2023/05/16 11:09:52;;;;;;;11.85;7.93;;;;;;;19.58;67.08;94014.44;5130357;28;20655;-75
2023/05/16 11:12:20;;;;;;;15.00;7.38;;;;;;;19.53;67.09;94009.38;5120498;27;20201;-78
2023/05/16 11:14:51;;;;;;;12.60;7.32;;;;;;;19.37;67.33;94011.75;5134708;27;20256;-76
2023/05/16 11:17:21;;;;;;;9.50;6.68;;;;;;;19.32;67.37;94012.94;5134122;27;20643;-78
2023/05/16 11:19:51;;;;;;;11.85;7.18;;;;;;;19.20;67.50;94016.13;5134685;27;20196;-77
2023/05/16 11:22:25;;;;;;;12.80;7.32;;;;;;;19.22;67.30;94024.75;5134352;27;20200;-77
2023/05/16 11:24:57;;;;;;;10.18;7.55;;;;;;;19.42;67.06;94023.09;5134128;27;20216;-77
2023/05/16 11:27:26;;;;;;;12.43;7.38;;;;;;;19.73;66.98;94031.66;5134309;27;20248;-77